createdAt,value
2022-10-11T00:00:16.657Z,22.30
2022-10-11T00:02:46.337Z,23.80
2022-10-11T00:05:18.340Z,17.58
2022-10-11T00:07:52.368Z,16.58
2022-10-11T00:10:20.087Z,11.52
2022-10-11T00:12:47.829Z,16.15
2022-10-11T00:15:25.370Z,17.58
2022-10-11T00:17:52.732Z,18.38
2022-10-11T00:20:20.303Z,20.25
2022-10-11T00:22:57.028Z,16.15
2022-10-11T00:25:31.095Z,19.95
2022-10-11T00:28:12.071Z,15.90
2022-10-11T00:30:43.807Z,21.58
2022-10-11T00:33:24.311Z,19.52
2022-10-11T00:35:54.253Z,13.45
2022-10-11T00:38:21.680Z,15.70
2022-10-11T00:40:55.257Z,19.27
2022-10-11T00:43:26.553Z,18.17
2022-10-11T00:46:03.643Z,16.38
2022-10-11T00:48:42.680Z,16.58
2022-10-11T00:51:35.254Z,16.48
2022-10-11T00:54:03.605Z,15.20
2022-10-11T00:56:44.262Z,20.83
2022-10-11T00:59:20.977Z,15.75
2022-10-11T01:01:55.152Z,18.40
2022-10-11T01:04:22.890Z,21.63
2022-10-11T01:06:51.867Z,20.50
2022-10-11T01:09:30.146Z,21.80
2022-10-11T01:12:00.659Z,15.98
2022-10-11T01:14:44.170Z,19.50
2022-10-11T01:17:20.462Z,21.75
2022-10-11T01:20:14.159Z,24.52
2022-10-11T01:23:11.819Z,17.80
2022-10-11T01:26:19.114Z,15.32
2022-10-11T01:29:25.454Z,17.08
2022-10-11T01:32:28.125Z,18.10
2022-10-11T01:35:06.570Z,15.25
2022-10-11T01:37:48.122Z,16.98
2022-10-11T01:40:24.967Z,21.55
2022-10-11T01:43:00.138Z,25.17
2022-10-11T01:45:33.710Z,23.95
2022-10-11T01:48:15.499Z,20.83
2022-10-11T01:51:01.926Z,25.70
2022-10-11T01:54:23.854Z,24.77
2022-10-11T01:57:04.759Z,32.53
2022-10-11T02:00:05.798Z,28.67
2022-10-11T02:02:47.219Z,31.05
2022-10-11T02:05:32.757Z,32.78
2022-10-11T02:08:17.720Z,24.35
2022-10-11T02:11:03.787Z,36.75
2022-10-11T02:13:55.918Z,28.70
2022-10-11T02:16:35.767Z,36.80
2022-10-11T02:19:10.921Z,36.30
2022-10-11T02:21:48.291Z,38.00
2022-10-11T02:24:38.189Z,32.53
2022-10-11T02:27:25.644Z,48.42
2022-10-11T02:29:59.681Z,37.65
2022-10-11T02:32:34.953Z,43.63
2022-10-11T02:35:06.191Z,46.00
2022-10-11T02:38:00.463Z,48.67
2022-10-11T02:40:33.555Z,55.42
2022-10-11T02:43:12.450Z,40.63
2022-10-11T02:45:44.729Z,53.42
2022-10-11T02:48:19.445Z,61.47
2022-10-11T02:50:47.353Z,54.30
2022-10-11T02:53:14.688Z,60.20
2022-10-11T02:55:48.455Z,66.63
2022-10-11T02:58:15.782Z,71.45
2022-10-11T03:00:43.650Z,66.78
2022-10-11T03:03:18.592Z,74.90
2022-10-11T03:05:50.861Z,67.78
2022-10-11T03:08:18.499Z,59.05
2022-10-11T03:10:55.709Z,60.65
2022-10-11T03:13:23.027Z,68.93
2022-10-11T03:16:02.323Z,56.03
2022-10-11T03:18:42.427Z,61.58
2022-10-11T03:21:10.116Z,68.45
2022-10-11T03:23:40.197Z,60.10
2022-10-11T03:26:14.106Z,49.88
2022-10-11T03:28:41.542Z,55.22
2022-10-11T03:31:13.790Z,64.35
2022-10-11T03:33:47.750Z,52.03
2022-10-11T03:36:15.211Z,48.42
2022-10-11T03:38:42.733Z,52.25
2022-10-11T03:41:16.739Z,45.45
2022-10-11T03:43:44.184Z,43.90
2022-10-11T03:46:11.584Z,44.00
2022-10-11T03:48:46.744Z,46.78
2022-10-11T03:51:15.094Z,42.08
2022-10-11T03:53:42.522Z,46.00
2022-10-11T03:56:16.787Z,56.03
2022-10-11T03:58:44.207Z,57.10
2022-10-11T04:01:11.842Z,46.15
2022-10-11T04:03:47.733Z,48.05
2022-10-11T04:06:15.086Z,46.88
2022-10-11T04:08:42.512Z,41.90
2022-10-11T04:11:16.714Z,42.17
2022-10-11T04:13:44.080Z,40.03
2022-10-11T04:16:11.421Z,48.92
2022-10-11T04:18:48.266Z,44.17
2022-10-11T04:21:15.760Z,47.85
2022-10-11T04:23:43.113Z,38.67
2022-10-11T04:26:18.815Z,35.03
2022-10-11T04:28:52.986Z,44.80
2022-10-11T04:31:26.789Z,46.47
2022-10-11T04:33:54.190Z,47.35
2022-10-11T04:36:24.329Z,39.13
2022-10-11T04:38:58.073Z,45.33
2022-10-11T04:41:25.873Z,40.67
2022-10-11T04:43:53.231Z,40.90
2022-10-11T04:46:27.086Z,40.92
2022-10-11T04:48:57.039Z,45.75
2022-10-11T04:51:27.615Z,45.47
2022-10-11T04:54:02.026Z,43.15
2022-10-11T04:56:30.651Z,44.30
2022-10-11T04:58:58.003Z,38.95
2022-10-11T05:01:32.015Z,48.42
2022-10-11T05:03:59.448Z,39.35
2022-10-11T05:06:26.928Z,41.15
2022-10-11T05:09:02.690Z,42.58
2022-10-11T05:11:30.217Z,44.03
2022-10-11T05:13:57.846Z,41.25
2022-10-11T05:16:31.784Z,37.05
2022-10-11T05:19:01.538Z,39.47
2022-10-11T05:21:32.137Z,42.38
2022-10-11T05:24:05.891Z,49.97
2022-10-11T05:26:56.962Z,45.58
2022-10-11T05:29:33.104Z,42.95
2022-10-11T05:32:00.494Z,52.78
2022-10-11T05:34:30.329Z,49.97
2022-10-11T05:37:04.358Z,56.90
2022-10-11T05:39:32.396Z,48.63
2022-10-11T05:41:59.852Z,58.38
2022-10-11T05:44:34.353Z,79.05
2022-10-11T05:47:01.747Z,61.95
2022-10-11T05:49:29.284Z,50.10
2022-10-11T05:52:03.327Z,59.20
2022-10-11T05:54:31.712Z,55.30
2022-10-11T05:56:59.235Z,44.05
2022-10-11T05:59:36.029Z,49.28
2022-10-11T06:02:04.114Z,46.35
2022-10-11T06:04:31.657Z,39.30
2022-10-11T06:07:06.018Z,53.42
2022-10-11T06:09:39.620Z,48.72
2022-10-11T06:12:07.341Z,47.08
2022-10-11T06:14:44.032Z,45.33
2022-10-11T06:17:11.538Z,47.67
2022-10-11T06:19:38.894Z,55.95
2022-10-11T06:22:13.019Z,52.38
2022-10-11T06:24:40.423Z,55.53
2022-10-11T06:27:21.038Z,86.97
2022-10-11T06:29:48.432Z,61.97
2022-10-11T06:32:18.263Z,86.38
2022-10-11T06:34:52.290Z,186.07
2022-10-11T06:37:20.372Z,231.98
2022-10-11T06:39:48.019Z,208.18
2022-10-11T06:42:22.302Z,85.13
2022-10-11T06:44:49.710Z,78.70
2022-10-11T06:47:17.099Z,172.85
2022-10-11T06:49:56.501Z,324.17
2022-10-11T06:52:23.883Z,359.27
2022-10-11T06:54:51.429Z,487.13
2022-10-11T06:57:25.503Z,608.40
2022-10-11T06:59:52.858Z,412.83
2022-10-11T07:02:25.071Z,681.45
2022-10-11T07:04:59.108Z,835.90
2022-10-11T07:07:26.503Z,445.35
2022-10-11T07:09:54.017Z,308.10
2022-10-11T07:12:28.085Z,459.73
2022-10-11T07:15:00.522Z,437.45
2022-10-11T07:17:30.182Z,70.65
2022-10-11T07:20:04.226Z,66.32
2022-10-11T07:22:31.634Z,56.95
2022-10-11T07:24:58.980Z,60.40
2022-10-11T07:27:33.209Z,64.88
2022-10-11T07:30:00.604Z,61.38
2022-10-11T07:32:28.010Z,62.95
2022-10-11T07:35:03.272Z,89.25
2022-10-11T07:37:30.738Z,68.82
2022-10-11T07:39:58.134Z,64.68
2022-10-11T07:42:32.241Z,57.58
2022-10-11T07:44:59.772Z,78.55
2022-10-11T07:47:27.198Z,114.03
2022-10-11T07:50:06.240Z,65.07
2022-10-11T07:52:40.653Z,237.27
2022-10-11T07:55:15.338Z,83.47
2022-10-11T07:57:48.750Z,52.05
2022-10-11T08:00:23.850Z,384.20
2022-10-11T08:02:51.280Z,756.28
2022-10-11T08:05:18.764Z,637.97
2022-10-11T08:07:52.786Z,165.88
2022-10-11T08:10:23.148Z,243.43
2022-10-11T08:12:50.942Z,418.08
2022-10-11T08:15:25.034Z,522.83
2022-10-11T08:17:52.509Z,1492.78
2022-10-11T08:20:20.632Z,799.33
2022-10-11T08:22:55.058Z,983.72
2022-10-11T08:25:30.218Z,576.72
2022-10-11T08:28:11.140Z,596.58
2022-10-11T08:30:38.757Z,915.72
2022-10-11T08:33:08.563Z,1148.38
2022-10-11T08:35:44.040Z,520.00
2022-10-11T08:38:12.100Z,726.97
2022-10-11T08:40:52.182Z,194.80
2022-10-11T08:43:48.251Z,492.85
2022-10-11T08:46:23.067Z,368.73
2022-10-11T08:48:52.173Z,701.75
2022-10-11T08:51:41.261Z,674.92
2022-10-11T08:54:21.098Z,559.47
2022-10-11T08:56:56.110Z,313.67
2022-10-11T08:59:46.467Z,241.20
2022-10-11T09:03:06.293Z,442.50
2022-10-11T09:06:00.702Z,144.98
2022-10-11T09:08:40.463Z,432.33
2022-10-11T09:11:26.697Z,532.17
2022-10-11T09:14:00.469Z,131.60
2022-10-11T09:16:46.501Z,175.45
2022-10-11T09:19:49.461Z,243.27
2022-10-11T09:22:31.512Z,312.33
2022-10-11T09:25:12.612Z,52.78
2022-10-11T09:28:17.661Z,132.93
2022-10-11T09:31:01.482Z,79.22
2022-10-11T09:33:42.566Z,246.95
2022-10-11T09:36:44.482Z,147.32
2022-10-11T09:39:35.437Z,71.28
2022-10-11T09:42:14.593Z,407.23
2022-10-11T09:44:47.760Z,331.27
2022-10-11T09:47:39.646Z,64.00
2022-10-11T09:50:20.768Z,42.47
2022-10-11T09:53:00.658Z,44.90
2022-10-11T09:55:50.896Z,51.55
2022-10-11T09:58:33.965Z,166.82
2022-10-11T10:01:08.674Z,201.30
2022-10-11T10:03:48.632Z,128.05
2022-10-11T10:06:25.100Z,42.10
2022-10-11T10:09:36.625Z,47.15
2022-10-11T10:12:21.480Z,79.68
2022-10-11T10:15:14.185Z,61.28
2022-10-11T10:17:49.817Z,48.47
2022-10-11T10:20:38.156Z,67.57
2022-10-11T10:23:28.474Z,42.28
2022-10-11T10:26:27.227Z,40.28
2022-10-11T10:29:09.264Z,45.85
2022-10-11T10:32:19.476Z,85.57
2022-10-11T10:35:08.345Z,140.60
2022-10-11T10:37:50.186Z,78.03
2022-10-11T10:40:36.219Z,95.47
2022-10-11T10:43:10.154Z,218.70
2022-10-11T10:46:08.542Z,362.13
2022-10-11T10:52:19.214Z,172.52
2022-10-11T10:54:59.208Z,41.65
2022-10-11T10:57:38.302Z,38.83
2022-10-11T11:00:30.192Z,32.40
2022-10-11T11:03:00.576Z,39.45
2022-10-11T11:06:00.190Z,35.05
2022-10-11T11:08:49.155Z,39.85
2022-10-11T11:11:32.047Z,40.53
2022-10-11T11:14:27.468Z,41.08
2022-10-11T11:17:26.228Z,35.95
2022-10-11T11:20:27.202Z,46.95
2022-10-11T11:23:27.051Z,31.38
2022-10-11T11:26:56.154Z,39.80
2022-10-11T11:29:58.039Z,36.20
2022-10-11T11:32:45.909Z,34.42
2022-10-11T11:35:43.038Z,30.73
2022-10-11T11:38:14.335Z,36.33
2022-10-11T11:40:57.056Z,32.58
2022-10-11T11:43:47.052Z,31.70
2022-10-11T11:46:28.517Z,27.40
2022-10-11T11:49:00.128Z,29.52
2022-10-11T11:51:52.216Z,25.85
2022-10-11T11:54:38.439Z,29.45
2022-10-11T11:57:22.301Z,26.88
2022-10-11T12:00:07.804Z,25.25
2022-10-11T12:02:59.247Z,32.50
2022-10-11T12:05:37.087Z,29.65
2022-10-11T12:08:15.024Z,30.50
2022-10-11T12:10:51.685Z,28.73
2022-10-11T12:13:46.033Z,26.60
2022-10-11T12:16:22.915Z,35.08
2022-10-11T12:19:08.456Z,32.60
2022-10-11T12:21:43.622Z,23.48
2022-10-11T12:24:26.595Z,31.73
2022-10-11T12:27:52.565Z,25.10
2022-10-11T12:30:54.557Z,29.23
2022-10-11T12:33:47.454Z,28.17
2022-10-11T12:36:36.600Z,28.35
2022-10-11T12:39:22.569Z,25.90
2022-10-11T12:42:05.833Z,27.67
2022-10-11T12:44:33.780Z,30.40
2022-10-11T12:47:40.743Z,29.13
2022-10-11T12:50:43.424Z,36.45
2022-10-11T12:54:02.462Z,30.63
2022-10-11T12:57:12.008Z,28.33
2022-10-11T12:59:58.664Z,25.73
2022-10-11T13:02:44.540Z,23.33
2022-10-11T13:05:32.690Z,34.17
2022-10-11T13:08:05.515Z,28.30
2022-10-11T13:10:54.246Z,29.15
2022-10-11T13:13:35.136Z,24.00
2022-10-11T13:16:18.836Z,24.88
2022-10-11T13:18:49.342Z,26.58
2022-10-11T13:21:42.785Z,21.50
2022-10-11T13:24:16.350Z,33.05
2022-10-11T13:27:07.698Z,27.15
2022-10-11T13:29:44.516Z,32.72
2022-10-11T13:32:26.053Z,26.23
2022-10-11T13:34:56.902Z,25.55
2022-10-11T13:37:35.450Z,25.73
2022-10-11T13:40:03.356Z,25.63
2022-10-11T13:42:32.935Z,27.02
2022-10-11T13:45:16.224Z,29.00
2022-10-11T13:47:43.888Z,31.25
2022-10-11T13:50:38.382Z,29.88
2022-10-11T13:53:11.787Z,34.83
2022-10-11T13:56:00.101Z,31.20
2022-10-11T13:58:46.420Z,23.17
2022-10-11T14:01:35.169Z,24.95
2022-10-11T14:04:05.567Z,29.05
2022-10-11T14:07:04.411Z,35.50
2022-10-11T14:09:36.714Z,27.42
2022-10-11T14:12:32.664Z,21.85
2022-10-11T14:15:02.110Z,23.33
2022-10-11T14:17:51.378Z,24.42
2022-10-11T14:20:30.860Z,21.90
2022-10-11T14:23:07.363Z,24.70
2022-10-11T14:25:39.614Z,24.48
2022-10-11T14:28:23.468Z,30.38
2022-10-11T14:30:51.009Z,25.63
2022-10-11T14:33:33.457Z,23.67
2022-10-11T14:36:01.274Z,23.33
2022-10-11T14:38:28.689Z,24.55
2022-10-11T14:41:02.529Z,22.52
2022-10-11T14:43:29.918Z,24.75
2022-10-11T14:45:59.579Z,22.50
2022-10-11T14:48:54.418Z,28.92
2022-10-11T14:51:32.803Z,21.33
2022-10-11T14:54:06.302Z,26.45
2022-10-11T14:56:36.153Z,22.95
2022-10-11T14:59:03.666Z,21.05
2022-10-11T15:01:38.215Z,30.85
2022-10-11T15:04:06.356Z,25.20
2022-10-11T15:06:37.979Z,21.13
2022-10-11T15:09:13.527Z,22.77
2022-10-11T15:11:41.554Z,24.35
2022-10-11T15:14:09.631Z,21.38
2022-10-11T15:16:44.666Z,25.15
2022-10-11T15:19:20.023Z,29.23
2022-10-11T15:21:55.388Z,17.83
2022-10-11T15:24:25.683Z,27.80
2022-10-11T15:27:07.045Z,25.60
2022-10-11T15:29:42.388Z,22.45
2022-10-11T15:32:19.076Z,22.90
2022-10-11T15:34:46.685Z,26.70
2022-10-11T15:37:24.698Z,23.13
2022-10-11T15:39:52.556Z,23.73
2022-10-11T15:42:20.383Z,20.10
2022-10-11T15:44:57.603Z,21.70
2022-10-11T15:47:25.302Z,18.00
2022-10-11T15:49:55.491Z,20.38
2022-10-11T15:52:29.206Z,22.52
2022-10-11T15:54:56.819Z,17.33
2022-10-11T15:57:27.178Z,17.58
2022-10-11T16:00:01.014Z,20.58
2022-10-11T16:02:30.388Z,20.63
2022-10-11T16:04:59.102Z,22.40
2022-10-11T16:07:33.454Z,23.63
2022-10-11T16:10:01.064Z,21.27
2022-10-11T16:12:31.339Z,22.90
2022-10-11T16:15:05.808Z,18.38
2022-10-11T16:17:33.731Z,25.80
2022-10-11T16:20:01.561Z,17.65
2022-10-11T16:22:37.534Z,24.95
2022-10-11T16:25:06.483Z,21.45
2022-10-11T16:27:48.624Z,20.58
2022-10-11T16:30:27.320Z,21.48
2022-10-11T16:33:02.905Z,20.52
2022-10-11T16:35:32.685Z,24.15
2022-10-11T16:38:01.502Z,22.13
2022-10-11T16:40:37.144Z,21.25
2022-10-11T16:43:07.836Z,27.23
2022-10-11T16:45:49.097Z,18.65
2022-10-11T16:48:16.493Z,19.13
2022-10-11T16:50:44.288Z,17.83
2022-10-11T16:53:18.984Z,18.65
2022-10-11T16:55:46.461Z,27.48
2022-10-11T16:58:13.975Z,26.08
2022-10-11T17:00:50.119Z,31.67
2022-10-11T17:03:18.058Z,27.23
2022-10-11T17:05:45.570Z,28.83
2022-10-11T17:08:20.087Z,29.77
2022-10-11T17:10:53.993Z,25.38
2022-10-11T17:13:30.001Z,27.30
2022-10-11T17:15:57.512Z,31.92
2022-10-11T17:18:25.318Z,25.55
2022-10-11T17:21:11.311Z,23.45
2022-10-11T17:23:42.108Z,26.65
2022-10-11T17:26:22.751Z,29.67
2022-10-11T17:29:04.764Z,31.50
2022-10-11T17:31:38.813Z,23.73
2022-10-11T17:34:06.343Z,26.38
2022-10-11T17:36:34.898Z,24.88
2022-10-11T17:39:21.226Z,23.73
2022-10-11T17:41:49.330Z,22.25
2022-10-11T17:44:18.115Z,25.95
2022-10-11T17:46:53.253Z,31.20
2022-10-11T17:49:20.664Z,33.80
2022-10-11T17:51:48.186Z,26.17
2022-10-11T17:54:24.543Z,24.75
2022-10-11T17:56:52.404Z,53.72
2022-10-11T17:59:21.829Z,32.72
2022-10-11T18:02:01.713Z,24.55
2022-10-11T18:04:30.208Z,20.83
2022-10-11T18:06:57.829Z,23.67
2022-10-11T18:09:34.775Z,32.92
2022-10-11T18:12:02.340Z,37.45
2022-10-11T18:14:29.886Z,33.95
2022-10-11T18:17:03.840Z,32.67
2022-10-11T18:19:31.393Z,31.92
2022-10-11T18:22:01.017Z,29.05
2022-10-11T18:24:38.799Z,26.63
2022-10-11T18:27:26.728Z,30.90
2022-10-11T18:30:02.865Z,23.60
2022-10-11T18:32:30.491Z,29.55
2022-10-11T18:35:11.860Z,27.55
2022-10-11T18:37:39.706Z,35.72
2022-10-11T18:40:07.547Z,35.75
2022-10-11T18:42:41.762Z,27.33
2022-10-11T18:45:10.673Z,31.52
2022-10-11T18:47:38.807Z,37.05
2022-10-11T18:50:12.995Z,37.38
2022-10-11T18:52:44.462Z,37.33
2022-10-11T18:55:12.324Z,38.53
2022-10-11T18:57:47.082Z,36.78
2022-10-11T19:00:39.738Z,31.55
2022-10-11T19:03:11.539Z,37.83
2022-10-11T19:05:42.062Z,27.45
2022-10-11T19:08:09.751Z,32.95
2022-10-11T19:10:44.156Z,40.25
2022-10-11T19:13:11.746Z,35.03
2022-10-11T19:15:39.349Z,30.33
2022-10-11T19:18:20.534Z,33.20
2022-10-11T19:20:49.285Z,35.80
2022-10-11T19:23:21.104Z,32.03
2022-10-11T19:26:03.979Z,37.20
2022-10-11T19:28:38.769Z,43.58
2022-10-11T19:31:24.677Z,39.28
2022-10-11T19:33:53.000Z,32.80
2022-10-11T19:36:22.621Z,33.13
2022-10-11T19:38:58.059Z,35.28
2022-10-11T19:41:33.274Z,40.88
2022-10-11T19:44:08.131Z,34.80
2022-10-11T19:46:52.929Z,37.17
2022-10-11T19:49:31.115Z,37.53
2022-10-11T19:51:58.676Z,33.28
2022-10-11T19:54:26.468Z,43.22
2022-10-11T19:57:00.963Z,32.90
2022-10-11T19:59:28.810Z,42.28
2022-10-11T20:01:56.533Z,38.05
2022-10-11T20:07:27.147Z,31.27
2022-10-11T20:10:01.806Z,34.00
2022-10-11T20:12:30.020Z,37.50
2022-10-11T20:14:58.200Z,38.95
2022-10-11T20:17:53.876Z,40.75
2022-10-11T20:20:22.059Z,43.72
2022-10-11T20:23:01.287Z,38.78
2022-10-11T20:25:33.478Z,35.70
2022-10-11T20:28:14.515Z,45.38
2022-10-11T20:30:43.988Z,39.42
2022-10-11T20:33:11.976Z,39.35
2022-10-11T20:35:47.040Z,56.83
2022-10-11T20:38:17.336Z,40.95
2022-10-11T20:40:45.013Z,50.05
2022-10-11T20:43:21.679Z,52.65
2022-10-11T20:46:26.714Z,53.55
2022-10-11T20:49:10.518Z,49.80
2022-10-11T20:51:42.099Z,43.28
2022-10-11T20:54:16.533Z,47.17
2022-10-11T20:56:44.435Z,56.08
2022-10-11T20:59:11.944Z,48.25
2022-10-11T21:01:48.614Z,61.08
2022-10-11T21:04:20.916Z,44.45
2022-10-11T21:06:49.536Z,53.65
2022-10-11T21:09:24.471Z,55.47
2022-10-11T21:11:55.356Z,53.78
2022-10-11T21:14:22.823Z,62.55
2022-10-11T21:16:56.505Z,52.45
2022-10-11T21:19:24.136Z,50.95
2022-10-11T21:21:53.898Z,48.60
2022-10-11T21:24:28.471Z,52.15
2022-10-11T21:27:00.464Z,46.47
2022-10-11T21:29:43.929Z,43.67
2022-10-11T21:32:14.427Z,44.20
2022-10-11T21:34:42.232Z,62.33
2022-10-11T21:37:19.044Z,56.50
2022-10-11T21:39:48.793Z,53.50
2022-10-11T21:42:17.023Z,57.70
2022-10-11T21:44:51.123Z,55.63
2022-10-11T21:47:20.878Z,51.70
2022-10-11T21:49:48.324Z,51.08
2022-10-11T21:52:25.578Z,60.95
2022-10-11T21:54:53.051Z,53.83
2022-10-11T21:57:21.401Z,44.63
2022-10-11T21:59:55.195Z,65.30
2022-10-11T22:02:22.638Z,63.80
2022-10-11T22:04:50.119Z,72.13
2022-10-11T22:07:26.320Z,62.17
2022-10-11T22:09:53.705Z,59.20
2022-10-11T22:12:21.076Z,48.35
2022-10-11T22:14:58.108Z,57.90
2022-10-11T22:17:28.410Z,60.20
2022-10-11T22:19:55.863Z,66.35
2022-10-11T22:22:29.373Z,48.42
2022-10-11T22:24:56.823Z,51.83
2022-10-11T22:27:44.284Z,50.33
2022-10-11T22:30:12.097Z,59.15
2022-10-11T22:32:43.160Z,58.28
2022-10-11T22:35:19.007Z,51.53
2022-10-11T22:37:52.710Z,59.63
2022-10-11T22:40:27.958Z,53.65
2022-10-11T22:42:55.309Z,50.60
2022-10-11T22:45:22.659Z,50.95
2022-10-11T22:48:05.657Z,48.58
2022-10-11T22:50:33.018Z,66.78
2022-10-11T22:53:00.343Z,62.42
2022-10-11T22:55:34.670Z,60.95
2022-10-11T22:58:02.021Z,51.55
2022-10-11T23:00:32.239Z,56.38
2022-10-11T23:03:09.292Z,55.28
2022-10-11T23:05:36.674Z,45.72
2022-10-11T23:08:05.216Z,76.18
2022-10-11T23:10:38.946Z,72.13
2022-10-11T23:13:06.418Z,65.38
2022-10-11T23:15:41.178Z,68.57
2022-10-11T23:18:16.280Z,72.15
2022-10-11T23:20:43.746Z,51.03
2022-10-11T23:23:11.128Z,73.00
2022-10-11T23:25:45.314Z,61.90
2022-10-11T23:28:19.454Z,73.57
2022-10-11T23:30:53.270Z,109.38
2022-10-11T23:33:20.588Z,89.05
2022-10-11T23:35:50.585Z,200.80
2022-10-11T23:38:24.506Z,147.30
2022-10-11T23:40:54.410Z,67.57
2022-10-11T23:43:21.860Z,174.20
2022-10-11T23:45:56.359Z,97.10
2022-10-11T23:48:23.750Z,81.18
2022-10-11T23:50:51.173Z,71.97
2022-10-11T23:53:25.320Z,147.10
2022-10-11T23:55:55.391Z,77.07
2022-10-11T23:58:22.796Z,165.18
